sensor_id;sensor_type;location;lat;lon;timestamp;P1;durP1;ratioP1;P2;durP2;ratioP2
47844;SDS011;33605;48.822;8.796;2023-07-30T00:01:37;2.20;;;1.33;;
47844;SDS011;33605;48.822;8.796;2023-07-30T00:04:03;4.03;;;1.63;;
47844;SDS011;33605;48.822;8.796;2023-07-30T00:06:29;2.70;;;1.53;;
47844;SDS011;33605;48.822;8.796;2023-07-30T00:08:55;2.00;;;1.47;;
47844;SDS011;33605;48.822;8.796;2023-07-30T00:11:21;1.73;;;1.60;;
47844;SDS011;33605;48.822;8.796;2023-07-30T00:13:47;1.70;;;1.60;;
47844;SDS011;33605;48.822;8.796;2023-07-30T00:16:13;2.03;;;1.40;;
47844;SDS011;33605;48.822;8.796;2023-07-30T00:18:39;2.40;;;1.70;;
47844;SDS011;33605;48.822;8.796;2023-07-30T00:21:05;2.50;;;2.03;;
47844;SDS011;33605;48.822;8.796;2023-07-30T00:23:31;2.37;;;1.70;;
47844;SDS011;33605;48.822;8.796;2023-07-30T00:25:57;2.33;;;1.97;;
47844;SDS011;33605;48.822;8.796;2023-07-30T00:28:23;1.57;;;1.47;;
47844;SDS011;33605;48.822;8.796;2023-07-30T00:30:49;1.23;;;1.13;;
47844;SDS011;33605;48.822;8.796;2023-07-30T00:33:15;1.47;;;1.33;;
47844;SDS011;33605;48.822;8.796;2023-07-30T00:35:41;1.50;;;1.10;;
47844;SDS011;33605;48.822;8.796;2023-07-30T00:38:07;1.47;;;1.10;;
47844;SDS011;33605;48.822;8.796;2023-07-30T00:40:39;1.67;;;1.23;;
47844;SDS011;33605;48.822;8.796;2023-07-30T00:43:05;1.40;;;1.20;;
47844;SDS011;33605;48.822;8.796;2023-07-30T00:45:31;1.93;;;1.30;;
47844;SDS011;33605;48.822;8.796;2023-07-30T00:47:57;1.43;;;1.30;;
47844;SDS011;33605;48.822;8.796;2023-07-30T00:50:23;1.43;;;1.30;;
47844;SDS011;33605;48.822;8.796;2023-07-30T00:52:49;1.80;;;1.50;;
47844;SDS011;33605;48.822;8.796;2023-07-30T00:55:15;1.50;;;1.40;;
47844;SDS011;33605;48.822;8.796;2023-07-30T00:57:41;1.83;;;1.33;;
47844;SDS011;33605;48.822;8.796;2023-07-30T01:00:08;1.70;;;1.60;;
47844;SDS011;33605;48.822;8.796;2023-07-30T01:02:35;2.07;;;1.63;;
47844;SDS011;33605;48.822;8.796;2023-07-30T01:05:01;2.57;;;1.27;;
47844;SDS011;33605;48.822;8.796;2023-07-30T01:07:31;1.30;;;1.20;;
47844;SDS011;33605;48.822;8.796;2023-07-30T01:09:57;1.80;;;1.60;;
47844;SDS011;33605;48.822;8.796;2023-07-30T01:12:24;1.60;;;1.50;;
47844;SDS011;33605;48.822;8.796;2023-07-30T01:14:50;2.13;;;1.93;;
47844;SDS011;33605;48.822;8.796;2023-07-30T01:17:16;1.77;;;1.60;;
47844;SDS011;33605;48.822;8.796;2023-07-30T01:19:42;1.77;;;1.67;;
47844;SDS011;33605;48.822;8.796;2023-07-30T01:22:08;1.53;;;1.43;;
47844;SDS011;33605;48.822;8.796;2023-07-30T01:24:34;1.77;;;1.40;;
47844;SDS011;33605;48.822;8.796;2023-07-30T01:27:04;1.87;;;1.67;;
47844;SDS011;33605;48.822;8.796;2023-07-30T01:31:57;1.70;;;1.60;;
47844;SDS011;33605;48.822;8.796;2023-07-30T01:34:27;1.30;;;1.20;;
47844;SDS011;33605;48.822;8.796;2023-07-30T01:36:53;2.20;;;1.30;;
47844;SDS011;33605;48.822;8.796;2023-07-30T01:39:20;1.60;;;1.50;;
47844;SDS011;33605;48.822;8.796;2023-07-30T01:41:46;1.40;;;1.30;;
47844;SDS011;33605;48.822;8.796;2023-07-30T01:44:12;1.60;;;1.50;;
47844;SDS011;33605;48.822;8.796;2023-07-30T01:46:38;1.60;;;1.40;;
47844;SDS011;33605;48.822;8.796;2023-07-30T01:49:04;1.63;;;1.53;;
47844;SDS011;33605;48.822;8.796;2023-07-30T01:51:30;38.53;;;3.60;;
47844;SDS011;33605;48.822;8.796;2023-07-30T01:53:56;2.50;;;1.80;;
47844;SDS011;33605;48.822;8.796;2023-07-30T01:56:22;1.60;;;1.27;;
47844;SDS011;33605;48.822;8.796;2023-07-30T01:58:48;1.60;;;1.30;;
47844;SDS011;33605;48.822;8.796;2023-07-30T02:01:14;1.30;;;1.20;;
47844;SDS011;33605;48.822;8.796;2023-07-30T02:03:40;1.97;;;1.47;;
47844;SDS011;33605;48.822;8.796;2023-07-30T02:06:06;1.87;;;1.50;;
47844;SDS011;33605;48.822;8.796;2023-07-30T02:08:32;1.60;;;1.50;;
47844;SDS011;33605;48.822;8.796;2023-07-30T02:10:58;3.67;;;1.67;;
47844;SDS011;33605;48.822;8.796;2023-07-30T02:13:24;1.60;;;1.30;;
47844;SDS011;33605;48.822;8.796;2023-07-30T02:15:50;2.23;;;1.87;;
47844;SDS011;33605;48.822;8.796;2023-07-30T02:18:16;1.43;;;1.30;;
47844;SDS011;33605;48.822;8.796;2023-07-30T02:20:42;1.90;;;1.70;;
47844;SDS011;33605;48.822;8.796;2023-07-30T02:23:08;1.50;;;1.40;;
47844;SDS011;33605;48.822;8.796;2023-07-30T02:25:34;1.50;;;1.40;;
47844;SDS011;33605;48.822;8.796;2023-07-30T02:28:00;2.03;;;1.20;;
47844;SDS011;33605;48.822;8.796;2023-07-30T02:30:27;2.43;;;1.80;;
47844;SDS011;33605;48.822;8.796;2023-07-30T02:32:54;5.00;;;1.70;;
47844;SDS011;33605;48.822;8.796;2023-07-30T02:35:20;1.60;;;1.50;;
47844;SDS011;33605;48.822;8.796;2023-07-30T02:37:46;2.13;;;1.40;;
47844;SDS011;33605;48.822;8.796;2023-07-30T02:40:13;2.20;;;1.57;;
47844;SDS011;33605;48.822;8.796;2023-07-30T02:42:39;1.80;;;1.50;;
47844;SDS011;33605;48.822;8.796;2023-07-30T02:45:05;1.20;;;1.10;;
47844;SDS011;33605;48.822;8.796;2023-07-30T02:47:31;2.10;;;1.37;;
47844;SDS011;33605;48.822;8.796;2023-07-30T02:49:58;1.73;;;1.43;;
47844;SDS011;33605;48.822;8.796;2023-07-30T02:52:24;1.67;;;1.57;;
47844;SDS011;33605;48.822;8.796;2023-07-30T02:54:50;1.60;;;1.50;;
47844;SDS011;33605;48.822;8.796;2023-07-30T02:57:16;2.70;;;1.50;;
47844;SDS011;33605;48.822;8.796;2023-07-30T02:59:42;1.80;;;1.70;;
47844;SDS011;33605;48.822;8.796;2023-07-30T03:02:08;2.47;;;1.57;;
47844;SDS011;33605;48.822;8.796;2023-07-30T03:04:34;3.80;;;1.40;;
47844;SDS011;33605;48.822;8.796;2023-07-30T03:07:01;16.70;;;1.90;;
47844;SDS011;33605;48.822;8.796;2023-07-30T03:09:27;1.33;;;1.10;;
47844;SDS011;33605;48.822;8.796;2023-07-30T03:11:53;1.80;;;1.30;;
47844;SDS011;33605;48.822;8.796;2023-07-30T03:14:19;1.73;;;1.63;;
47844;SDS011;33605;48.822;8.796;2023-07-30T03:16:48;1.30;;;1.20;;
47844;SDS011;33605;48.822;8.796;2023-07-30T03:19:14;4.30;;;1.60;;
47844;SDS011;33605;48.822;8.796;2023-07-30T03:21:40;1.40;;;1.30;;
47844;SDS011;33605;48.822;8.796;2023-07-30T03:24:06;2.00;;;1.57;;
47844;SDS011;33605;48.822;8.796;2023-07-30T03:26:32;1.40;;;1.30;;
47844;SDS011;33605;48.822;8.796;2023-07-30T03:28:58;1.70;;;1.60;;
47844;SDS011;33605;48.822;8.796;2023-07-30T03:31:24;1.43;;;1.33;;
47844;SDS011;33605;48.822;8.796;2023-07-30T03:33:50;1.83;;;1.73;;
47844;SDS011;33605;48.822;8.796;2023-07-30T03:36:16;1.57;;;1.47;;
47844;SDS011;33605;48.822;8.796;2023-07-30T03:38:42;6.23;;;1.80;;
47844;SDS011;33605;48.822;8.796;2023-07-30T03:41:09;3.00;;;1.50;;
47844;SDS011;33605;48.822;8.796;2023-07-30T03:43:36;2.10;;;1.50;;
47844;SDS011;33605;48.822;8.796;2023-07-30T03:46:02;1.80;;;1.60;;
47844;SDS011;33605;48.822;8.796;2023-07-30T03:48:28;3.00;;;2.17;;
47844;SDS011;33605;48.822;8.796;2023-07-30T03:50:55;2.07;;;1.70;;
47844;SDS011;33605;48.822;8.796;2023-07-30T03:53:21;1.73;;;1.60;;
47844;SDS011;33605;48.822;8.796;2023-07-30T03:55:47;1.77;;;1.67;;
47844;SDS011;33605;48.822;8.796;2023-07-30T03:58:13;1.73;;;1.60;;
47844;SDS011;33605;48.822;8.796;2023-07-30T04:00:39;2.57;;;1.63;;
47844;SDS011;33605;48.822;8.796;2023-07-30T04:03:05;4.60;;;1.90;;
47844;SDS011;33605;48.822;8.796;2023-07-30T04:05:31;3.70;;;1.97;;
47844;SDS011;33605;48.822;8.796;2023-07-30T04:07:57;28.87;;;2.30;;
47844;SDS011;33605;48.822;8.796;2023-07-30T04:10:23;1.17;;;1.07;;
47844;SDS011;33605;48.822;8.796;2023-07-30T04:12:50;14.27;;;1.90;;
47844;SDS011;33605;48.822;8.796;2023-07-30T04:15:16;1.57;;;1.10;;
47844;SDS011;33605;48.822;8.796;2023-07-30T04:17:42;1.50;;;1.40;;
47844;SDS011;33605;48.822;8.796;2023-07-30T04:20:08;1.90;;;1.23;;
47844;SDS011;33605;48.822;8.796;2023-07-30T04:22:34;1.77;;;1.60;;
47844;SDS011;33605;48.822;8.796;2023-07-30T04:25:01;1.60;;;1.50;;
47844;SDS011;33605;48.822;8.796;2023-07-30T04:27:27;2.03;;;1.60;;
47844;SDS011;33605;48.822;8.796;2023-07-30T04:29:53;1.57;;;1.47;;
47844;SDS011;33605;48.822;8.796;2023-07-30T04:32:19;1.60;;;1.50;;
47844;SDS011;33605;48.822;8.796;2023-07-30T04:34:45;1.63;;;1.53;;
47844;SDS011;33605;48.822;8.796;2023-07-30T04:37:11;1.77;;;1.67;;
47844;SDS011;33605;48.822;8.796;2023-07-30T04:39:37;2.00;;;1.80;;
47844;SDS011;33605;48.822;8.796;2023-07-30T04:42:03;1.60;;;1.50;;
47844;SDS011;33605;48.822;8.796;2023-07-30T04:44:29;2.00;;;1.77;;
47844;SDS011;33605;48.822;8.796;2023-07-30T04:46:55;1.70;;;1.60;;
47844;SDS011;33605;48.822;8.796;2023-07-30T04:49:21;1.77;;;1.67;;
47844;SDS011;33605;48.822;8.796;2023-07-30T04:51:47;2.07;;;1.87;;
47844;SDS011;33605;48.822;8.796;2023-07-30T04:54:13;1.87;;;1.70;;
47844;SDS011;33605;48.822;8.796;2023-07-30T04:56:39;6.30;;;2.90;;
47844;SDS011;33605;48.822;8.796;2023-07-30T04:59:05;3.00;;;1.50;;
47844;SDS011;33605;48.822;8.796;2023-07-30T05:01:31;1.93;;;1.63;;
47844;SDS011;33605;48.822;8.796;2023-07-30T05:03:57;2.53;;;1.37;;
47844;SDS011;33605;48.822;8.796;2023-07-30T05:06:23;2.13;;;1.93;;
47844;SDS011;33605;48.822;8.796;2023-07-30T05:08:49;1.83;;;1.40;;
47844;SDS011;33605;48.822;8.796;2023-07-30T05:11:15;2.33;;;1.57;;
47844;SDS011;33605;48.822;8.796;2023-07-30T05:13:41;1.50;;;1.40;;
47844;SDS011;33605;48.822;8.796;2023-07-30T05:16:07;1.60;;;1.50;;
47844;SDS011;33605;48.822;8.796;2023-07-30T05:18:33;1.90;;;1.70;;
47844;SDS011;33605;48.822;8.796;2023-07-30T05:20:59;1.30;;;1.20;;
47844;SDS011;33605;48.822;8.796;2023-07-30T05:23:25;1.60;;;1.30;;
47844;SDS011;33605;48.822;8.796;2023-07-30T05:25:51;2.20;;;1.67;;
47844;SDS011;33605;48.822;8.796;2023-07-30T05:28:17;1.80;;;1.70;;
47844;SDS011;33605;48.822;8.796;2023-07-30T05:30:43;3.87;;;1.60;;
47844;SDS011;33605;48.822;8.796;2023-07-30T05:33:09;1.73;;;1.50;;
47844;SDS011;33605;48.822;8.796;2023-07-30T05:35:35;2.13;;;1.90;;
47844;SDS011;33605;48.822;8.796;2023-07-30T05:38:01;5.80;;;5.10;;
47844;SDS011;33605;48.822;8.796;2023-07-30T05:40:27;7.10;;;5.10;;
47844;SDS011;33605;48.822;8.796;2023-07-30T05:42:53;4.73;;;4.07;;
47844;SDS011;33605;48.822;8.796;2023-07-30T05:45:19;5.33;;;3.50;;
47844;SDS011;33605;48.822;8.796;2023-07-30T05:47:45;3.40;;;3.00;;
47844;SDS011;33605;48.822;8.796;2023-07-30T05:50:11;2.60;;;2.40;;
47844;SDS011;33605;48.822;8.796;2023-07-30T05:52:37;2.97;;;2.30;;
47844;SDS011;33605;48.822;8.796;2023-07-30T05:55:03;2.80;;;1.90;;
47844;SDS011;33605;48.822;8.796;2023-07-30T05:57:29;1.97;;;1.77;;
47844;SDS011;33605;48.822;8.796;2023-07-30T05:59:55;2.33;;;2.10;;
47844;SDS011;33605;48.822;8.796;2023-07-30T06:02:21;2.13;;;1.93;;
47844;SDS011;33605;48.822;8.796;2023-07-30T06:04:47;2.20;;;2.00;;
47844;SDS011;33605;48.822;8.796;2023-07-30T06:07:13;2.87;;;2.27;;
47844;SDS011;33605;48.822;8.796;2023-07-30T06:09:39;6.63;;;2.40;;
47844;SDS011;33605;48.822;8.796;2023-07-30T06:12:05;2.30;;;1.97;;
47844;SDS011;33605;48.822;8.796;2023-07-30T06:14:31;3.70;;;2.27;;
47844;SDS011;33605;48.822;8.796;2023-07-30T06:16:57;1.83;;;1.70;;
47844;SDS011;33605;48.822;8.796;2023-07-30T06:19:23;2.10;;;1.90;;
47844;SDS011;33605;48.822;8.796;2023-07-30T06:21:49;2.10;;;1.70;;
47844;SDS011;33605;48.822;8.796;2023-07-30T06:24:16;3.10;;;2.00;;
47844;SDS011;33605;48.822;8.796;2023-07-30T06:26:42;2.13;;;1.93;;
47844;SDS011;33605;48.822;8.796;2023-07-30T06:29:08;5.10;;;2.20;;
47844;SDS011;33605;48.822;8.796;2023-07-30T06:31:34;2.50;;;1.83;;
47844;SDS011;33605;48.822;8.796;2023-07-30T06:34:00;2.03;;;1.63;;
47844;SDS011;33605;48.822;8.796;2023-07-30T06:36:26;2.30;;;1.93;;
47844;SDS011;33605;48.822;8.796;2023-07-30T06:38:52;2.07;;;1.87;;
47844;SDS011;33605;48.822;8.796;2023-07-30T06:41:18;2.20;;;2.00;;
47844;SDS011;33605;48.822;8.796;2023-07-30T06:43:44;2.30;;;1.93;;
47844;SDS011;33605;48.822;8.796;2023-07-30T06:46:10;2.67;;;2.47;;
47844;SDS011;33605;48.822;8.796;2023-07-30T06:48:36;3.00;;;2.30;;
47844;SDS011;33605;48.822;8.796;2023-07-30T06:51:05;1.67;;;1.57;;
47844;SDS011;33605;48.822;8.796;2023-07-30T06:53:32;2.40;;;2.13;;
47844;SDS011;33605;48.822;8.796;2023-07-30T06:55:58;2.20;;;1.57;;
47844;SDS011;33605;48.822;8.796;2023-07-30T06:58:24;1.80;;;1.70;;
47844;SDS011;33605;48.822;8.796;2023-07-30T07:00:50;4.00;;;2.13;;
47844;SDS011;33605;48.822;8.796;2023-07-30T07:03:16;2.50;;;2.07;;
47844;SDS011;33605;48.822;8.796;2023-07-30T07:05:42;2.20;;;1.80;;
47844;SDS011;33605;48.822;8.796;2023-07-30T07:08:08;2.33;;;1.77;;
47844;SDS011;33605;48.822;8.796;2023-07-30T07:10:34;2.20;;;2.00;;
47844;SDS011;33605;48.822;8.796;2023-07-30T07:13:00;1.80;;;1.70;;
47844;SDS011;33605;48.822;8.796;2023-07-30T07:15:26;1.90;;;1.80;;
47844;SDS011;33605;48.822;8.796;2023-07-30T07:17:52;1.60;;;1.50;;
47844;SDS011;33605;48.822;8.796;2023-07-30T07:20:18;2.30;;;1.80;;
47844;SDS011;33605;48.822;8.796;2023-07-30T07:22:44;1.77;;;1.67;;
47844;SDS011;33605;48.822;8.796;2023-07-30T07:25:10;1.90;;;1.70;;
47844;SDS011;33605;48.822;8.796;2023-07-30T07:27:36;2.07;;;1.87;;
47844;SDS011;33605;48.822;8.796;2023-07-30T07:30:02;3.40;;;1.80;;
47844;SDS011;33605;48.822;8.796;2023-07-30T07:32:28;1.80;;;1.70;;
47844;SDS011;33605;48.822;8.796;2023-07-30T07:34:54;2.17;;;1.97;;
47844;SDS011;33605;48.822;8.796;2023-07-30T07:37:20;3.87;;;1.73;;
47844;SDS011;33605;48.822;8.796;2023-07-30T07:39:46;1.90;;;1.80;;
47844;SDS011;33605;48.822;8.796;2023-07-30T07:42:12;2.30;;;1.97;;
47844;SDS011;33605;48.822;8.796;2023-07-30T07:44:38;1.80;;;1.70;;
47844;SDS011;33605;48.822;8.796;2023-07-30T07:47:04;2.53;;;1.90;;
47844;SDS011;33605;48.822;8.796;2023-07-30T07:49:30;2.20;;;2.00;;
47844;SDS011;33605;48.822;8.796;2023-07-30T07:51:56;2.20;;;2.00;;
47844;SDS011;33605;48.822;8.796;2023-07-30T07:54:22;2.10;;;1.90;;
47844;SDS011;33605;48.822;8.796;2023-07-30T07:56:48;3.47;;;1.70;;
47844;SDS011;33605;48.822;8.796;2023-07-30T07:59:17;4.60;;;2.20;;
47844;SDS011;33605;48.822;8.796;2023-07-30T08:01:43;2.07;;;1.73;;
47844;SDS011;33605;48.822;8.796;2023-07-30T08:04:08;1.97;;;1.77;;
47844;SDS011;33605;48.822;8.796;2023-07-30T08:06:34;2.20;;;2.00;;
47844;SDS011;33605;48.822;8.796;2023-07-30T08:09:00;2.53;;;2.33;;
47844;SDS011;33605;48.822;8.796;2023-07-30T08:11:26;2.40;;;2.20;;
47844;SDS011;33605;48.822;8.796;2023-07-30T08:13:52;1.67;;;1.57;;
47844;SDS011;33605;48.822;8.796;2023-07-30T08:16:18;2.20;;;2.00;;
47844;SDS011;33605;48.822;8.796;2023-07-30T08:18:44;2.27;;;2.00;;
47844;SDS011;33605;48.822;8.796;2023-07-30T08:21:10;3.03;;;2.40;;
47844;SDS011;33605;48.822;8.796;2023-07-30T08:23:36;2.17;;;1.97;;
47844;SDS011;33605;48.822;8.796;2023-07-30T08:26:02;3.10;;;2.47;;
47844;SDS011;33605;48.822;8.796;2023-07-30T08:28:28;2.40;;;2.10;;
47844;SDS011;33605;48.822;8.796;2023-07-30T08:30:59;3.40;;;1.93;;
47844;SDS011;33605;48.822;8.796;2023-07-30T08:33:26;2.30;;;2.10;;
47844;SDS011;33605;48.822;8.796;2023-07-30T08:35:54;2.10;;;2.00;;
47844;SDS011;33605;48.822;8.796;2023-07-30T08:38:21;4.33;;;2.13;;
47844;SDS011;33605;48.822;8.796;2023-07-30T08:40:47;2.40;;;2.13;;
47844;SDS011;33605;48.822;8.796;2023-07-30T08:43:13;2.40;;;2.20;;
47844;SDS011;33605;48.822;8.796;2023-07-30T08:45:39;3.23;;;2.20;;
47844;SDS011;33605;48.822;8.796;2023-07-30T08:48:05;3.80;;;2.20;;
47844;SDS011;33605;48.822;8.796;2023-07-30T08:50:31;2.20;;;2.00;;
47844;SDS011;33605;48.822;8.796;2023-07-30T08:52:58;2.80;;;2.40;;
47844;SDS011;33605;48.822;8.796;2023-07-30T08:55:25;3.30;;;2.30;;
47844;SDS011;33605;48.822;8.796;2023-07-30T08:57:53;3.20;;;2.30;;
47844;SDS011;33605;48.822;8.796;2023-07-30T09:00:19;2.70;;;2.50;;
47844;SDS011;33605;48.822;8.796;2023-07-30T09:02:48;2.40;;;2.20;;
47844;SDS011;33605;48.822;8.796;2023-07-30T09:05:15;2.73;;;2.50;;
47844;SDS011;33605;48.822;8.796;2023-07-30T09:07:41;3.20;;;2.50;;
47844;SDS011;33605;48.822;8.796;2023-07-30T09:10:07;3.13;;;2.60;;
47844;SDS011;33605;48.822;8.796;2023-07-30T09:12:33;2.40;;;2.20;;
47844;SDS011;33605;48.822;8.796;2023-07-30T09:15:00;3.70;;;2.70;;
47844;SDS011;33605;48.822;8.796;2023-07-30T09:17:29;4.37;;;2.47;;
47844;SDS011;33605;48.822;8.796;2023-07-30T09:19:55;3.10;;;2.43;;
47844;SDS011;33605;48.822;8.796;2023-07-30T09:22:28;4.10;;;2.33;;
47844;SDS011;33605;48.822;8.796;2023-07-30T09:24:55;3.63;;;2.50;;
47844;SDS011;33605;48.822;8.796;2023-07-30T09:27:22;2.63;;;2.43;;
47844;SDS011;33605;48.822;8.796;2023-07-30T09:29:50;3.63;;;2.90;;
47844;SDS011;33605;48.822;8.796;2023-07-30T09:32:17;2.47;;;2.17;;
47844;SDS011;33605;48.822;8.796;2023-07-30T09:34:44;2.97;;;2.57;;
47844;SDS011;33605;48.822;8.796;2023-07-30T09:37:10;2.63;;;2.43;;
47844;SDS011;33605;48.822;8.796;2023-07-30T09:39:37;4.20;;;2.70;;
47844;SDS011;33605;48.822;8.796;2023-07-30T09:42:03;2.50;;;2.30;;
47844;SDS011;33605;48.822;8.796;2023-07-30T09:44:29;3.33;;;2.80;;
47844;SDS011;33605;48.822;8.796;2023-07-30T09:46:57;5.00;;;2.63;;
47844;SDS011;33605;48.822;8.796;2023-07-30T09:49:23;2.70;;;2.50;;
47844;SDS011;33605;48.822;8.796;2023-07-30T09:51:49;3.23;;;2.20;;
47844;SDS011;33605;48.822;8.796;2023-07-30T09:54:16;3.03;;;2.73;;
47844;SDS011;33605;48.822;8.796;2023-07-30T09:56:42;3.10;;;2.40;;
47844;SDS011;33605;48.822;8.796;2023-07-30T09:59:09;2.80;;;2.50;;
47844;SDS011;33605;48.822;8.796;2023-07-30T10:01:36;2.67;;;2.47;;
47844;SDS011;33605;48.822;8.796;2023-07-30T10:04:06;6.20;;;2.73;;
47844;SDS011;33605;48.822;8.796;2023-07-30T10:06:33;4.20;;;2.30;;
47844;SDS011;33605;48.822;8.796;2023-07-30T10:09:02;3.23;;;2.50;;
47844;SDS011;33605;48.822;8.796;2023-07-30T10:11:28;2.63;;;2.40;;
47844;SDS011;33605;48.822;8.796;2023-07-30T10:13:54;3.37;;;3.03;;
47844;SDS011;33605;48.822;8.796;2023-07-30T10:16:30;2.53;;;2.30;;
47844;SDS011;33605;48.822;8.796;2023-07-30T10:18:57;3.17;;;2.87;;
47844;SDS011;33605;48.822;8.796;2023-07-30T10:21:24;3.33;;;2.30;;
47844;SDS011;33605;48.822;8.796;2023-07-30T10:24:03;8.00;;;2.67;;
47844;SDS011;33605;48.822;8.796;2023-07-30T10:26:33;2.83;;;2.23;;
47844;SDS011;33605;48.822;8.796;2023-07-30T10:29:17;4.10;;;2.77;;
47844;SDS011;33605;48.822;8.796;2023-07-30T10:31:48;2.30;;;2.10;;
47844;SDS011;33605;48.822;8.796;2023-07-30T10:34:14;2.87;;;2.33;;
47844;SDS011;33605;48.822;8.796;2023-07-30T10:36:47;3.33;;;2.57;;
47844;SDS011;33605;48.822;8.796;2023-07-30T10:39:14;4.20;;;2.40;;
47844;SDS011;33605;48.822;8.796;2023-07-30T10:41:42;3.57;;;2.83;;
47844;SDS011;33605;48.822;8.796;2023-07-30T10:44:16;4.50;;;2.43;;
47844;SDS011;33605;48.822;8.796;2023-07-30T10:46:43;3.30;;;2.87;;
47844;SDS011;33605;48.822;8.796;2023-07-30T10:49:09;4.07;;;2.70;;
47844;SDS011;33605;48.822;8.796;2023-07-30T10:51:37;3.77;;;2.60;;
47844;SDS011;33605;48.822;8.796;2023-07-30T10:54:05;2.37;;;2.23;;
47844;SDS011;33605;48.822;8.796;2023-07-30T10:56:32;3.13;;;2.30;;
47844;SDS011;33605;48.822;8.796;2023-07-30T10:59:00;3.67;;;2.70;;
47844;SDS011;33605;48.822;8.796;2023-07-30T11:01:26;3.20;;;2.50;;
47844;SDS011;33605;48.822;8.796;2023-07-30T11:03:52;4.50;;;3.03;;
47844;SDS011;33605;48.822;8.796;2023-07-30T11:06:25;3.37;;;3.07;;
47844;SDS011;33605;48.822;8.796;2023-07-30T11:08:52;3.03;;;2.77;;
47844;SDS011;33605;48.822;8.796;2023-07-30T11:11:18;2.90;;;2.70;;
47844;SDS011;33605;48.822;8.796;2023-07-30T11:13:45;2.60;;;2.40;;
47844;SDS011;33605;48.822;8.796;2023-07-30T11:16:14;3.77;;;2.47;;
47844;SDS011;33605;48.822;8.796;2023-07-30T11:18:41;3.10;;;2.53;;
47844;SDS011;33605;48.822;8.796;2023-07-30T11:21:08;3.50;;;2.00;;
47844;SDS011;33605;48.822;8.796;2023-07-30T11:23:35;5.10;;;2.20;;
47844;SDS011;33605;48.822;8.796;2023-07-30T11:26:02;2.37;;;2.03;;
47844;SDS011;33605;48.822;8.796;2023-07-30T11:28:32;1.97;;;1.87;;
47844;SDS011;33605;48.822;8.796;2023-07-30T11:30:59;2.93;;;2.70;;
47844;SDS011;33605;48.822;8.796;2023-07-30T11:33:26;2.40;;;2.00;;
47844;SDS011;33605;48.822;8.796;2023-07-30T11:35:52;2.37;;;2.17;;
47844;SDS011;33605;48.822;8.796;2023-07-30T11:38:19;2.47;;;2.20;;
47844;SDS011;33605;48.822;8.796;2023-07-30T11:40:46;5.10;;;3.00;;
47844;SDS011;33605;48.822;8.796;2023-07-30T11:43:12;3.97;;;2.47;;
47844;SDS011;33605;48.822;8.796;2023-07-30T11:45:38;2.67;;;2.40;;
47844;SDS011;33605;48.822;8.796;2023-07-30T11:48:08;3.00;;;2.70;;
47844;SDS011;33605;48.822;8.796;2023-07-30T11:50:47;2.80;;;2.37;;
47844;SDS011;33605;48.822;8.796;2023-07-30T11:53:13;2.23;;;2.00;;
47844;SDS011;33605;48.822;8.796;2023-07-30T11:55:40;3.30;;;2.20;;
47844;SDS011;33605;48.822;8.796;2023-07-30T11:58:06;4.57;;;2.50;;
47844;SDS011;33605;48.822;8.796;2023-07-30T12:00:33;2.57;;;2.30;;
47844;SDS011;33605;48.822;8.796;2023-07-30T12:03:05;2.60;;;2.40;;
47844;SDS011;33605;48.822;8.796;2023-07-30T12:05:35;2.87;;;2.40;;
47844;SDS011;33605;48.822;8.796;2023-07-30T12:08:05;3.10;;;2.20;;
47844;SDS011;33605;48.822;8.796;2023-07-30T12:10:43;2.17;;;1.90;;
47844;SDS011;33605;48.822;8.796;2023-07-30T12:13:13;4.50;;;2.30;;
47844;SDS011;33605;48.822;8.796;2023-07-30T12:15:42;3.33;;;2.33;;
47844;SDS011;33605;48.822;8.796;2023-07-30T12:18:08;3.60;;;2.20;;
47844;SDS011;33605;48.822;8.796;2023-07-30T12:20:34;2.40;;;1.97;;
47844;SDS011;33605;48.822;8.796;2023-07-30T12:23:00;5.17;;;2.20;;
47844;SDS011;33605;48.822;8.796;2023-07-30T12:25:28;2.60;;;2.00;;
47844;SDS011;33605;48.822;8.796;2023-07-30T12:27:54;2.40;;;2.20;;
47844;SDS011;33605;48.822;8.796;2023-07-30T12:30:19;2.40;;;2.13;;
47844;SDS011;33605;48.822;8.796;2023-07-30T12:32:45;3.20;;;2.10;;
47844;SDS011;33605;48.822;8.796;2023-07-30T12:35:11;3.80;;;2.47;;
47844;SDS011;33605;48.822;8.796;2023-07-30T12:37:37;2.43;;;1.90;;
47844;SDS011;33605;48.822;8.796;2023-07-30T12:40:03;3.27;;;2.13;;
47844;SDS011;33605;48.822;8.796;2023-07-30T12:42:29;8.03;;;2.10;;
47844;SDS011;33605;48.822;8.796;2023-07-30T12:44:56;2.80;;;2.00;;
47844;SDS011;33605;48.822;8.796;2023-07-30T12:47:22;4.20;;;2.50;;
47844;SDS011;33605;48.822;8.796;2023-07-30T12:49:48;2.50;;;2.30;;
47844;SDS011;33605;48.822;8.796;2023-07-30T12:52:14;2.57;;;2.33;;
47844;SDS011;33605;48.822;8.796;2023-07-30T12:54:40;4.60;;;2.30;;
47844;SDS011;33605;48.822;8.796;2023-07-30T12:57:06;3.63;;;2.40;;
47844;SDS011;33605;48.822;8.796;2023-07-30T12:59:32;2.50;;;2.30;;
47844;SDS011;33605;48.822;8.796;2023-07-30T13:02:00;3.00;;;1.93;;
47844;SDS011;33605;48.822;8.796;2023-07-30T13:04:26;3.27;;;2.30;;
47844;SDS011;33605;48.822;8.796;2023-07-30T13:06:53;2.73;;;1.90;;
47844;SDS011;33605;48.822;8.796;2023-07-30T13:09:19;2.53;;;2.00;;
47844;SDS011;33605;48.822;8.796;2023-07-30T13:11:45;2.33;;;2.10;;
47844;SDS011;33605;48.822;8.796;2023-07-30T13:14:11;2.80;;;2.10;;
47844;SDS011;33605;48.822;8.796;2023-07-30T13:16:37;4.23;;;1.97;;
47844;SDS011;33605;48.822;8.796;2023-07-30T13:19:03;5.50;;;1.97;;
47844;SDS011;33605;48.822;8.796;2023-07-30T13:21:29;3.97;;;2.27;;
47844;SDS011;33605;48.822;8.796;2023-07-30T13:23:55;7.53;;;2.93;;
47844;SDS011;33605;48.822;8.796;2023-07-30T13:26:21;2.20;;;2.00;;
47844;SDS011;33605;48.822;8.796;2023-07-30T13:28:47;5.03;;;3.07;;
47844;SDS011;33605;48.822;8.796;2023-07-30T13:31:13;5.57;;;2.10;;
47844;SDS011;33605;48.822;8.796;2023-07-30T13:33:39;6.97;;;2.20;;
47844;SDS011;33605;48.822;8.796;2023-07-30T13:36:05;7.10;;;2.53;;
47844;SDS011;33605;48.822;8.796;2023-07-30T13:38:31;5.53;;;2.00;;
47844;SDS011;33605;48.822;8.796;2023-07-30T13:40:57;3.03;;;1.80;;
47844;SDS011;33605;48.822;8.796;2023-07-30T13:43:23;2.90;;;2.20;;
47844;SDS011;33605;48.822;8.796;2023-07-30T13:45:49;3.23;;;2.30;;
47844;SDS011;33605;48.822;8.796;2023-07-30T13:48:16;2.63;;;2.23;;
47844;SDS011;33605;48.822;8.796;2023-07-30T13:50:42;4.30;;;2.60;;
47844;SDS011;33605;48.822;8.796;2023-07-30T13:53:08;2.20;;;2.00;;
47844;SDS011;33605;48.822;8.796;2023-07-30T13:55:34;2.83;;;2.40;;
47844;SDS011;33605;48.822;8.796;2023-07-30T13:58:00;2.63;;;2.20;;
47844;SDS011;33605;48.822;8.796;2023-07-30T14:00:26;3.97;;;2.40;;
47844;SDS011;33605;48.822;8.796;2023-07-30T14:02:52;3.23;;;2.20;;
47844;SDS011;33605;48.822;8.796;2023-07-30T14:05:18;3.10;;;2.23;;
47844;SDS011;33605;48.822;8.796;2023-07-30T14:07:44;5.43;;;2.10;;
47844;SDS011;33605;48.822;8.796;2023-07-30T14:10:10;2.63;;;2.10;;
47844;SDS011;33605;48.822;8.796;2023-07-30T14:12:36;2.80;;;2.13;;
47844;SDS011;33605;48.822;8.796;2023-07-30T14:15:02;2.93;;;2.13;;
47844;SDS011;33605;48.822;8.796;2023-07-30T14:17:28;3.00;;;2.13;;
47844;SDS011;33605;48.822;8.796;2023-07-30T14:19:54;2.50;;;2.30;;
47844;SDS011;33605;48.822;8.796;2023-07-30T14:22:21;4.60;;;1.90;;
47844;SDS011;33605;48.822;8.796;2023-07-30T14:24:47;3.43;;;2.20;;
47844;SDS011;33605;48.822;8.796;2023-07-30T14:27:13;3.10;;;2.00;;
47844;SDS011;33605;48.822;8.796;2023-07-30T14:29:40;2.80;;;2.00;;
47844;SDS011;33605;48.822;8.796;2023-07-30T14:32:06;3.50;;;2.30;;
47844;SDS011;33605;48.822;8.796;2023-07-30T14:34:32;3.43;;;2.10;;
47844;SDS011;33605;48.822;8.796;2023-07-30T14:36:58;2.53;;;1.70;;
47844;SDS011;33605;48.822;8.796;2023-07-30T14:39:24;3.63;;;1.90;;
47844;SDS011;33605;48.822;8.796;2023-07-30T14:41:50;3.40;;;1.93;;
47844;SDS011;33605;48.822;8.796;2023-07-30T14:44:16;6.03;;;1.80;;
47844;SDS011;33605;48.822;8.796;2023-07-30T14:46:42;4.23;;;2.20;;